createdAt,value
2018-12-06T00:00:58.071Z,9.30
2018-12-06T00:01:58.098Z,8.50
2018-12-06T00:02:58.059Z,9.00
2018-12-06T00:03:58.031Z,9.20
2018-12-06T00:04:58.055Z,9.50
2018-12-06T00:05:58.093Z,9.30
2018-12-06T00:06:57.982Z,9.90
2018-12-06T00:07:58.007Z,10.20
2018-12-06T00:09:00.875Z,9.30
2018-12-06T00:09:58.776Z,10.20
2018-12-06T00:10:57.945Z,10.60
2018-12-06T00:11:58.909Z,10.70
2018-12-06T00:12:58.018Z,10.00
2018-12-06T00:13:59.812Z,10.40
2018-12-06T00:14:59.746Z,10.60
2018-12-06T00:15:57.947Z,11.60
2018-12-06T00:16:57.940Z,11.40
2018-12-06T00:17:57.980Z,11.60
2018-12-06T00:18:57.933Z,12.40
2018-12-06T00:19:57.842Z,11.80
2018-12-06T00:27:56.178Z,11.40
2018-12-06T01:01:53.396Z,13.80
2018-12-06T01:02:52.095Z,16.10
2018-12-06T01:03:51.552Z,16.00
2018-12-06T01:04:51.513Z,16.40
2018-12-06T01:05:51.583Z,16.90
2018-12-06T01:06:51.516Z,16.70
2018-12-06T01:07:51.442Z,16.80
2018-12-06T01:08:55.410Z,16.30
2018-12-06T01:09:51.455Z,16.30
2018-12-06T01:10:51.406Z,16.40
2018-12-06T01:11:51.382Z,17.00
2018-12-06T01:12:51.427Z,16.70
2018-12-06T01:25:51.236Z,16.00
2018-12-06T01:26:51.554Z,17.30
2018-12-06T01:27:50.882Z,16.50
2018-12-06T01:28:50.444Z,16.50
2018-12-06T01:29:50.377Z,16.60
2018-12-06T01:30:50.434Z,16.60
2018-12-06T01:31:50.319Z,16.90
2018-12-06T01:32:50.278Z,16.60
2018-12-06T01:33:50.233Z,16.80
2018-12-06T01:34:50.233Z,17.00
2018-12-06T01:35:50.207Z,16.50
2018-12-06T01:36:50.260Z,16.60
2018-12-06T01:37:50.247Z,16.10
2018-12-06T01:38:50.188Z,16.50
2018-12-06T01:39:50.226Z,15.70
2018-12-06T01:40:50.159Z,16.30
2018-12-06T01:41:51.132Z,15.60
2018-12-06T01:42:50.146Z,16.60
2018-12-06T01:43:50.125Z,15.60
2018-12-06T01:44:50.111Z,17.00
2018-12-06T01:45:50.096Z,16.90
2018-12-06T01:46:50.082Z,16.70
2018-12-06T01:47:50.187Z,16.40
2018-12-06T01:48:50.063Z,16.00
2018-12-06T01:49:50.046Z,16.90
2018-12-06T01:50:50.055Z,16.30
2018-12-06T01:51:50.035Z,15.90
2018-12-06T01:52:50.020Z,15.80
2018-12-06T01:53:50.042Z,15.90
2018-12-06T01:54:49.991Z,15.90
2018-12-06T01:55:50.010Z,16.20
2018-12-06T01:56:49.981Z,15.70
2018-12-06T01:57:49.991Z,15.80
2018-12-06T01:58:49.972Z,16.00
2018-12-06T01:59:49.941Z,16.30
2018-12-06T02:00:49.941Z,15.50
2018-12-06T02:01:49.932Z,16.10
2018-12-06T02:02:49.915Z,14.50
2018-12-06T02:03:50.007Z,15.80
2018-12-06T02:04:49.893Z,15.70
2018-12-06T02:05:49.889Z,15.90
2018-12-06T02:06:49.914Z,15.50
2018-12-06T02:07:49.856Z,16.20
2018-12-06T02:08:49.882Z,16.10
2018-12-06T02:09:49.859Z,16.40
2018-12-06T02:10:49.849Z,16.50
2018-12-06T02:11:49.866Z,15.30
2018-12-06T02:12:49.801Z,15.30
2018-12-06T02:13:49.845Z,16.00
2018-12-06T02:14:49.800Z,16.20
2018-12-06T02:15:49.772Z,15.50
2018-12-06T02:16:49.778Z,15.50
2018-12-06T02:17:49.749Z,15.60
2018-12-06T02:18:49.741Z,15.60
2018-12-06T02:19:49.739Z,15.20
2018-12-06T02:20:49.716Z,15.20
2018-12-06T02:21:49.715Z,15.70
2018-12-06T02:22:49.735Z,15.60
2018-12-06T02:23:49.720Z,16.10
2018-12-06T02:24:49.716Z,15.20
2018-12-06T02:25:49.667Z,15.20
2018-12-06T02:26:49.647Z,15.50
2018-12-06T02:27:49.633Z,15.00
2018-12-06T02:28:49.631Z,16.60
2018-12-06T02:29:49.624Z,15.30
2018-12-06T02:30:49.625Z,15.40
2018-12-06T02:31:49.605Z,15.70
2018-12-06T02:32:49.579Z,15.10
2018-12-06T02:33:49.576Z,15.10
2018-12-06T02:34:49.557Z,15.30
2018-12-06T02:35:49.581Z,14.70
2018-12-06T02:36:49.556Z,15.00
2018-12-06T02:37:49.552Z,14.80
2018-12-06T02:38:49.569Z,14.90
2018-12-06T02:39:49.509Z,14.50
2018-12-06T02:40:49.501Z,14.90
2018-12-06T02:41:49.554Z,13.90
2018-12-06T02:42:49.471Z,15.00
2018-12-06T02:43:49.489Z,14.20
2018-12-06T02:44:49.453Z,14.80
2018-12-06T02:45:49.461Z,13.40
2018-12-06T02:46:49.433Z,14.70
2018-12-06T02:47:49.543Z,14.00
2018-12-06T02:48:49.415Z,14.00
2018-12-06T02:49:49.393Z,13.80
2018-12-06T02:50:49.395Z,13.90
2018-12-06T02:51:49.432Z,14.30
2018-12-06T02:52:49.359Z,14.40
2018-12-06T02:53:49.343Z,13.30
2018-12-06T02:54:49.382Z,13.70
2018-12-06T02:55:49.334Z,14.30
2018-12-06T02:56:49.319Z,13.90
2018-12-06T02:57:49.349Z,14.30
2018-12-06T02:58:49.295Z,13.80
2018-12-06T02:59:49.297Z,13.70
2018-12-06T03:00:49.288Z,13.50
2018-12-06T03:01:49.259Z,13.10
2018-12-06T03:02:49.280Z,13.00
2018-12-06T03:03:49.270Z,13.20
2018-12-06T03:04:49.227Z,13.20
2018-12-06T03:05:49.249Z,13.40
2018-12-06T03:06:49.211Z,13.60
2018-12-06T03:07:49.292Z,13.00
2018-12-06T03:08:49.204Z,13.20
2018-12-06T03:09:49.168Z,13.10
2018-12-06T03:10:49.165Z,13.40
2018-12-06T03:11:49.148Z,13.30
2018-12-06T03:12:49.142Z,13.60
2018-12-06T03:13:49.134Z,12.80
2018-12-06T03:14:49.147Z,13.60
2018-12-06T03:15:49.104Z,13.00
2018-12-06T03:16:49.119Z,13.10
2018-12-06T03:17:49.095Z,13.40
2018-12-06T03:18:49.076Z,13.20
2018-12-06T03:19:49.075Z,13.30
2018-12-06T03:20:49.053Z,12.60
2018-12-06T03:21:49.088Z,12.70
2018-12-06T03:22:49.035Z,12.60
2018-12-06T03:23:49.020Z,12.90
2018-12-06T03:24:49.041Z,12.30
2018-12-06T03:25:49.004Z,12.10
2018-12-06T03:26:49.011Z,11.80
2018-12-06T03:27:48.967Z,12.00
2018-12-06T03:28:49.047Z,11.60
2018-12-06T03:29:48.951Z,11.60
2018-12-06T03:30:48.993Z,11.30
2018-12-06T03:31:48.989Z,11.90
2018-12-06T03:32:48.923Z,12.30
2018-12-06T03:33:48.917Z,11.70
2018-12-06T03:34:48.898Z,12.10
2018-12-06T03:35:48.882Z,12.10
2018-12-06T03:36:48.916Z,11.30
2018-12-06T03:37:48.874Z,11.20
2018-12-06T03:38:48.910Z,12.00
2018-12-06T03:39:51.623Z,11.60
2018-12-06T03:40:48.867Z,11.40
2018-12-06T03:41:48.831Z,12.10
2018-12-06T03:42:48.870Z,11.60
2018-12-06T03:43:48.810Z,12.20
2018-12-06T03:44:48.795Z,12.80
2018-12-06T03:45:48.783Z,11.70
2018-12-06T03:46:48.789Z,11.60
2018-12-06T03:47:48.768Z,11.60
2018-12-06T03:48:48.748Z,11.50
2018-12-06T03:49:48.738Z,11.80
2018-12-06T03:50:48.741Z,11.50
2018-12-06T03:51:48.764Z,11.40
2018-12-06T03:52:48.716Z,11.80
2018-12-06T03:53:48.723Z,11.70
2018-12-06T03:54:49.615Z,11.10
2018-12-06T03:55:48.673Z,11.30
2018-12-06T03:56:48.682Z,11.70
2018-12-06T03:57:48.670Z,11.40
2018-12-06T03:58:48.663Z,11.80
2018-12-06T03:59:48.637Z,11.90
2018-12-06T04:00:48.615Z,12.80
2018-12-06T04:01:48.601Z,12.40
2018-12-06T04:02:48.640Z,11.80
2018-12-06T04:03:48.592Z,12.30
2018-12-06T04:04:48.592Z,11.50
2018-12-06T04:05:48.572Z,11.90
2018-12-06T04:06:48.554Z,11.80
2018-12-06T04:07:48.577Z,12.60
2018-12-06T04:08:48.552Z,12.40
2018-12-06T04:09:48.525Z,12.70
2018-12-06T04:10:48.525Z,12.10
2018-12-06T04:11:48.499Z,12.70
2018-12-06T04:12:48.493Z,12.50
2018-12-06T04:13:48.472Z,12.40
2018-12-06T04:14:48.486Z,12.40
2018-12-06T04:15:48.458Z,12.60
2018-12-06T04:16:48.437Z,12.70
2018-12-06T04:17:48.454Z,12.60
2018-12-06T04:18:48.452Z,13.00
2018-12-06T04:19:48.403Z,12.00
2018-12-06T04:20:48.416Z,12.50
2018-12-06T04:21:48.390Z,12.60
2018-12-06T04:22:48.376Z,12.20
2018-12-06T04:23:48.415Z,12.70
2018-12-06T04:24:48.474Z,12.10
2018-12-06T04:25:48.344Z,12.90
2018-12-06T04:26:48.334Z,12.90
2018-12-06T04:27:48.379Z,12.70
2018-12-06T04:28:48.309Z,12.30
2018-12-06T04:29:48.322Z,12.30
2018-12-06T04:30:48.288Z,12.40
2018-12-06T04:31:48.295Z,13.00
2018-12-06T04:32:48.280Z,12.30
2018-12-06T04:33:48.254Z,13.10
2018-12-06T04:34:48.269Z,13.00
2018-12-06T04:35:48.256Z,12.10
2018-12-06T04:36:48.226Z,12.90
2018-12-06T04:37:48.214Z,13.10
2018-12-06T04:38:48.249Z,13.00
2018-12-06T04:39:48.208Z,12.80
2018-12-06T04:40:48.206Z,12.80
2018-12-06T04:41:48.169Z,13.30
2018-12-06T04:42:48.163Z,12.60
2018-12-06T04:43:48.149Z,12.50
2018-12-06T04:44:48.165Z,12.00
2018-12-06T04:45:48.127Z,12.00
2018-12-06T04:46:48.127Z,12.40
2018-12-06T04:47:48.117Z,12.70
2018-12-06T04:48:48.087Z,12.60
2018-12-06T04:49:48.078Z,12.70
2018-12-06T04:50:48.299Z,12.30
2018-12-06T04:51:48.074Z,12.60
2018-12-06T04:52:48.050Z,13.10
2018-12-06T04:53:48.049Z,12.30
2018-12-06T04:54:48.023Z,12.40
2018-12-06T04:55:48.035Z,12.60
2018-12-06T04:56:48.073Z,13.00
2018-12-06T04:57:47.999Z,12.70
2018-12-06T04:58:47.980Z,13.30
2018-12-06T04:59:47.987Z,12.80
2018-12-06T05:00:47.963Z,12.60
2018-12-06T05:01:47.950Z,13.30
2018-12-06T05:02:47.958Z,12.80
2018-12-06T05:03:47.932Z,13.60
2018-12-06T05:04:47.929Z,12.60
2018-12-06T05:05:47.899Z,13.60
2018-12-06T05:06:47.888Z,12.80
2018-12-06T05:07:47.910Z,13.00
2018-12-06T05:08:47.873Z,12.40
2018-12-06T05:09:47.857Z,12.80
2018-12-06T05:10:47.850Z,12.80
2018-12-06T05:11:47.840Z,13.00
2018-12-06T05:12:47.844Z,12.80
2018-12-06T05:13:47.815Z,12.70
2018-12-06T05:14:47.816Z,13.10
2018-12-06T05:15:47.813Z,12.70
2018-12-06T05:16:47.791Z,12.30
2018-12-06T05:17:47.776Z,12.50
2018-12-06T05:18:47.763Z,12.60
2018-12-06T05:19:47.782Z,13.20
2018-12-06T05:20:47.751Z,12.30
2018-12-06T05:21:47.817Z,12.80
2018-12-06T05:22:47.722Z,13.20
2018-12-06T05:23:47.708Z,12.20
2018-12-06T05:24:47.697Z,12.70
2018-12-06T05:25:47.746Z,12.00
2018-12-06T05:26:47.681Z,12.40
2018-12-06T05:27:47.666Z,12.50
2018-12-06T05:28:47.675Z,12.30
2018-12-06T05:29:47.689Z,12.70
2018-12-06T05:30:47.650Z,13.10
2018-12-06T05:31:47.652Z,13.70
2018-12-06T05:32:47.624Z,13.20
2018-12-06T05:33:47.605Z,13.20
2018-12-06T05:34:47.597Z,13.30
2018-12-06T05:35:47.590Z,21.90
2018-12-06T05:36:47.574Z,17.80
2018-12-06T05:37:47.624Z,14.10
2018-12-06T05:38:47.556Z,15.00
2018-12-06T05:39:47.535Z,18.80
2018-12-06T05:40:47.526Z,15.30
2018-12-06T05:41:47.557Z,13.80
2018-12-06T05:42:47.497Z,19.60
2018-12-06T05:43:47.488Z,20.80
2018-12-06T05:44:47.484Z,22.70
2018-12-06T05:45:47.477Z,15.70
2018-12-06T05:46:47.495Z,16.30
2018-12-06T05:47:47.454Z,36.10
2018-12-06T05:48:47.441Z,16.90
2018-12-06T05:49:47.471Z,20.50
2018-12-06T05:50:47.420Z,62.80
2018-12-06T05:51:47.408Z,91.80
2018-12-06T05:52:47.460Z,37.90
2018-12-06T05:53:47.393Z,19.90
2018-12-06T05:54:47.431Z,17.80
2018-12-06T05:55:47.470Z,18.60
2018-12-06T05:56:48.122Z,18.90
2018-12-06T05:57:48.312Z,18.20
2018-12-06T05:58:47.331Z,19.30
2018-12-06T05:59:47.316Z,19.20
2018-12-06T06:00:47.384Z,26.50
2018-12-06T06:01:47.321Z,20.40
2018-12-06T06:02:47.302Z,29.20
2018-12-06T06:03:47.302Z,22.40
2018-12-06T06:04:47.263Z,21.40
2018-12-06T06:05:47.466Z,21.10
2018-12-06T06:06:47.583Z,32.60
2018-12-06T06:07:47.348Z,32.00
2018-12-06T06:08:47.230Z,22.80
2018-12-06T06:09:47.211Z,23.40
2018-12-06T06:10:47.189Z,21.60
2018-12-06T06:11:47.371Z,23.80
2018-12-06T06:12:47.306Z,36.40
2018-12-06T06:13:47.185Z,22.30
2018-12-06T06:14:47.165Z,22.60
2018-12-06T06:15:47.202Z,22.50
2018-12-06T06:16:47.227Z,21.70
2018-12-06T06:19:23.199Z,22.10
2018-12-06T06:20:22.782Z,23.10
2018-12-06T06:21:22.871Z,22.80
2018-12-06T06:22:22.754Z,22.40
2018-12-06T06:23:22.754Z,22.50
2018-12-06T06:24:22.713Z,22.80
2018-12-06T06:25:22.635Z,23.80
2018-12-06T06:31:25.583Z,22.70
2018-12-06T06:32:25.193Z,25.80
2018-12-06T06:33:25.127Z,24.80
2018-12-06T06:34:25.075Z,23.50
2018-12-06T06:35:25.013Z,25.50
2018-12-06T06:36:24.987Z,25.70
2018-12-06T06:37:25.081Z,26.90
2018-12-06T06:38:24.995Z,24.70
2018-12-06T06:39:25.147Z,24.50
2018-12-06T06:40:25.050Z,25.60
2018-12-06T06:41:25.103Z,25.20
2018-12-06T06:43:45.044Z,24.40
2018-12-06T06:44:46.795Z,27.30
2018-12-06T06:47:35.030Z,25.40
2018-12-06T06:48:34.770Z,47.60
2018-12-06T06:49:34.691Z,42.00
2018-12-06T06:51:56.410Z,24.50
2018-12-06T06:52:55.896Z,33.90
2018-12-06T06:53:55.919Z,28.20
2018-12-06T06:54:55.781Z,28.20
2018-12-06T06:55:55.767Z,26.70
2018-12-06T06:56:55.855Z,28.70
2018-12-06T06:57:55.744Z,26.70
2018-12-06T06:58:55.726Z,26.90
2018-12-06T06:59:55.737Z,27.30
2018-12-06T07:00:55.724Z,26.70
2018-12-06T07:01:55.690Z,27.80
2018-12-06T07:02:55.679Z,26.80
2018-12-06T07:03:55.672Z,27.10
2018-12-06T07:04:56.480Z,26.80
2018-12-06T07:05:55.673Z,25.50
2018-12-06T07:06:55.643Z,26.10
2018-12-06T07:07:55.629Z,25.90
2018-12-06T07:08:55.611Z,26.40
2018-12-06T07:09:55.603Z,26.20
2018-12-06T07:10:55.608Z,26.20
2018-12-06T07:11:55.585Z,26.60
2018-12-06T07:12:55.574Z,25.80
2018-12-06T07:13:55.597Z,24.60
2018-12-06T07:14:55.554Z,25.20
2018-12-06T07:15:55.565Z,24.90
2018-12-06T07:16:55.532Z,23.50
2018-12-06T07:17:55.519Z,24.50
2018-12-06T07:18:55.508Z,23.90
2018-12-06T07:19:55.504Z,23.40
2018-12-06T07:20:55.478Z,22.90
2018-12-06T07:21:55.578Z,23.90
2018-12-06T07:22:55.470Z,23.20
2018-12-06T07:23:55.465Z,23.20
2018-12-06T07:24:55.487Z,23.40
2018-12-06T07:25:55.441Z,22.10
2018-12-06T07:26:55.426Z,21.60
2018-12-06T07:27:55.438Z,21.70
2018-12-06T07:28:55.402Z,20.50
2018-12-06T07:29:55.381Z,21.10
2018-12-06T07:30:55.373Z,20.10
2018-12-06T07:31:55.412Z,20.70
2018-12-06T07:32:55.365Z,20.90
2018-12-06T07:33:55.340Z,20.30
2018-12-06T07:34:55.327Z,19.90
2018-12-06T07:35:55.329Z,20.50
2018-12-06T07:36:55.304Z,19.60
2018-12-06T07:37:55.308Z,20.20
2018-12-06T07:38:55.293Z,19.50
2018-12-06T07:39:55.272Z,20.10
2018-12-06T07:40:55.264Z,19.50
2018-12-06T07:41:55.298Z,19.60
2018-12-06T07:42:55.239Z,19.40
2018-12-06T07:43:55.229Z,18.90
2018-12-06T07:44:55.227Z,19.90
2018-12-06T07:45:55.212Z,19.40
2018-12-06T07:46:55.194Z,18.90
2018-12-06T07:47:55.197Z,19.20
2018-12-06T07:48:55.189Z,18.40
2018-12-06T07:49:55.164Z,18.70
2018-12-06T07:50:55.428Z,18.70
2018-12-06T07:51:55.140Z,19.00
2018-12-06T07:52:55.200Z,18.50
2018-12-06T07:53:55.158Z,19.40
2018-12-06T07:54:55.126Z,19.30
2018-12-06T07:55:55.115Z,18.70
2018-12-06T07:56:55.113Z,18.50
2018-12-06T07:57:55.089Z,17.50
2018-12-06T07:58:55.079Z,18.30
2018-12-06T07:59:55.073Z,18.80
2018-12-06T08:00:55.041Z,17.80
2018-12-06T08:01:55.035Z,17.90
2018-12-06T08:02:55.981Z,17.40
2018-12-06T08:03:55.028Z,17.30
2018-12-06T08:04:55.002Z,17.90
2018-12-06T08:05:54.986Z,18.10
2018-12-06T08:06:54.980Z,16.90
2018-12-06T08:07:54.966Z,18.20
2018-12-06T08:08:54.978Z,16.60
2018-12-06T08:09:54.944Z,17.90
2018-12-06T08:10:55.028Z,17.60
2018-12-06T08:11:54.941Z,17.50
2018-12-06T08:12:54.913Z,15.90
2018-12-06T08:13:54.901Z,16.80
2018-12-06T08:14:54.906Z,16.20
2018-12-06T08:15:54.883Z,17.00
2018-12-06T08:16:54.879Z,15.50
2018-12-06T08:17:54.971Z,15.30
2018-12-06T08:18:54.846Z,15.80
2018-12-06T08:19:54.863Z,15.10
2018-12-06T08:20:54.830Z,15.50
2018-12-06T08:21:54.813Z,15.70
2018-12-06T08:22:54.810Z,15.70
2018-12-06T08:23:54.804Z,15.50
2018-12-06T08:24:54.782Z,15.80
2018-12-06T08:25:54.812Z,15.40
2018-12-06T08:26:54.767Z,14.70
2018-12-06T08:27:54.749Z,14.70
2018-12-06T08:28:54.744Z,14.60
2018-12-06T08:29:54.759Z,15.20
2018-12-06T08:30:54.714Z,15.10
2018-12-06T08:31:54.721Z,14.90
2018-12-06T08:32:54.713Z,15.20
2018-12-06T08:33:54.685Z,14.90
2018-12-06T08:34:54.675Z,14.60
2018-12-06T08:35:54.674Z,14.90
2018-12-06T08:36:54.698Z,15.80
2018-12-06T08:37:54.721Z,14.90
2018-12-06T08:38:54.628Z,15.10
2018-12-06T08:39:54.618Z,14.80
2018-12-06T08:40:54.605Z,15.20
2018-12-06T08:41:54.623Z,15.10
2018-12-06T08:42:54.582Z,14.50
2018-12-06T08:43:54.574Z,14.60
2018-12-06T08:44:54.560Z,14.90
2018-12-06T08:45:54.555Z,14.30
2018-12-06T08:46:54.557Z,14.30
2018-12-06T08:47:54.561Z,14.20
2018-12-06T08:48:54.534Z,14.20
2018-12-06T08:49:54.510Z,15.20
2018-12-06T08:50:54.737Z,14.60
2018-12-06T08:51:54.501Z,14.90
2018-12-06T08:52:54.495Z,14.90
2018-12-06T08:53:54.458Z,14.90
2018-12-06T08:54:54.460Z,14.10
2018-12-06T08:55:54.445Z,15.20
2018-12-06T08:56:54.436Z,15.70
2018-12-06T08:57:54.438Z,15.40
2018-12-06T08:58:54.450Z,15.80
2018-12-06T08:59:54.400Z,16.70
2018-12-06T09:00:54.387Z,15.50
2018-12-06T09:01:54.377Z,16.20
2018-12-06T09:02:54.366Z,15.60
2018-12-06T09:03:54.351Z,14.00
2018-12-06T09:04:54.373Z,14.60
2018-12-06T09:05:54.331Z,15.10
2018-12-06T09:08:34.958Z,12.50
2018-12-06T09:09:34.554Z,14.40
2018-12-06T09:10:34.404Z,13.80
2018-12-06T09:11:34.434Z,13.40
2018-12-06T09:12:34.387Z,13.50
2018-12-06T09:13:34.384Z,14.40
2018-12-06T09:14:34.346Z,14.60
2018-12-06T09:15:34.338Z,13.90
2018-12-06T09:16:34.332Z,14.50
2018-12-06T09:17:34.359Z,13.80
2018-12-06T09:18:34.318Z,13.20
2018-12-06T09:19:34.316Z,13.20
2018-12-06T09:20:34.302Z,12.90
2018-12-06T09:21:34.275Z,13.50
2018-12-06T09:22:34.253Z,13.90
2018-12-06T09:23:34.280Z,13.50
2018-12-06T09:24:34.267Z,13.70
2018-12-06T09:25:34.225Z,13.60
2018-12-06T09:26:34.208Z,13.30
2018-12-06T09:27:34.214Z,13.70
2018-12-06T09:28:34.190Z,13.10
2018-12-06T09:29:34.230Z,12.70
2018-12-06T09:30:34.171Z,13.00
2018-12-06T09:31:34.161Z,12.30
2018-12-06T09:32:34.145Z,12.80
2018-12-06T09:33:34.133Z,13.00
2018-12-06T09:34:34.127Z,12.70
2018-12-06T09:35:34.125Z,12.70
2018-12-06T09:36:34.113Z,12.90
2018-12-06T09:37:34.096Z,13.00
2018-12-06T09:38:34.084Z,12.70
2018-12-06T09:39:34.065Z,13.00
2018-12-06T09:40:34.099Z,12.80
2018-12-06T09:41:34.045Z,13.00
2018-12-06T09:42:34.728Z,13.60
2018-12-06T09:43:34.030Z,14.40
2018-12-06T09:44:34.011Z,13.20
2018-12-06T09:45:34.001Z,14.30
2018-12-06T09:46:34.006Z,13.80
2018-12-06T09:47:33.975Z,13.80
2018-12-06T09:48:33.980Z,14.30
2018-12-06T09:49:33.958Z,13.50
2018-12-06T09:50:33.942Z,14.20
2018-12-06T09:51:33.944Z,14.20
2018-12-06T09:52:33.925Z,14.30
2018-12-06T09:53:33.919Z,14.30
2018-12-06T09:54:33.897Z,14.40
2018-12-06T09:55:33.906Z,14.40
2018-12-06T09:56:33.915Z,14.30
2018-12-06T09:57:33.869Z,15.30
2018-12-06T09:58:33.957Z,15.30
2018-12-06T09:59:33.840Z,15.90
2018-12-06T10:00:33.832Z,15.50
2018-12-06T10:01:33.856Z,15.60
2018-12-06T10:02:33.830Z,16.20
2018-12-06T10:03:33.796Z,15.50
2018-12-06T10:04:33.785Z,16.20
2018-12-06T10:05:33.780Z,15.80
2018-12-06T10:06:33.771Z,16.10
2018-12-06T10:07:33.765Z,16.40
2018-12-06T10:08:33.797Z,16.80
2018-12-06T10:09:33.738Z,17.10
2018-12-06T10:10:33.723Z,17.30
2018-12-06T10:11:33.713Z,17.10
2018-12-06T10:12:33.707Z,18.00
2018-12-06T10:13:33.690Z,17.40
2018-12-06T10:14:33.701Z,17.00
2018-12-06T10:15:33.676Z,17.40
2018-12-06T10:16:33.654Z,17.80
2018-12-06T10:17:33.662Z,18.40
2018-12-06T10:18:33.658Z,17.80
2018-12-06T10:19:33.625Z,17.90
2018-12-06T10:20:33.611Z,17.60
2018-12-06T10:21:33.612Z,17.50
2018-12-06T10:22:33.600Z,17.40
2018-12-06T10:23:33.586Z,17.40
2018-12-06T10:24:33.606Z,17.40
2018-12-06T10:25:33.557Z,18.00
2018-12-06T10:26:33.546Z,17.00
2018-12-06T10:27:33.546Z,17.40
2018-12-06T10:28:33.523Z,16.90
2018-12-06T10:29:33.554Z,17.60
2018-12-06T10:30:33.521Z,17.50
2018-12-06T10:31:33.484Z,17.60
2018-12-06T10:32:33.474Z,17.00
2018-12-06T10:33:33.468Z,17.80
2018-12-06T10:34:33.460Z,16.40
2018-12-06T10:35:33.440Z,17.20
2018-12-06T10:36:33.447Z,16.90
2018-12-06T10:37:33.418Z,16.80
2018-12-06T10:38:33.410Z,17.10
2018-12-06T10:39:33.398Z,17.00
2018-12-06T10:40:33.387Z,17.60
2018-12-06T10:41:33.386Z,16.90
2018-12-06T10:42:33.367Z,17.00
2018-12-06T10:43:33.359Z,16.40
2018-12-06T10:44:33.363Z,16.40
2018-12-06T10:45:33.408Z,16.30
2018-12-06T10:46:33.315Z,16.20
2018-12-06T10:47:33.307Z,16.60
2018-12-06T10:48:33.301Z,16.70
2018-12-06T10:49:33.354Z,16.50
2018-12-06T10:50:33.283Z,16.40
2018-12-06T10:51:33.262Z,15.90
2018-12-06T10:52:33.251Z,16.10
2018-12-06T10:53:33.251Z,16.20
2018-12-06T10:54:33.234Z,15.80
2018-12-06T10:55:33.256Z,16.40
2018-12-06T10:56:33.223Z,15.50
2018-12-06T10:57:33.202Z,16.10
2018-12-06T10:58:33.185Z,17.00
2018-12-06T10:59:33.172Z,17.00
2018-12-06T11:00:33.207Z,17.20
2018-12-06T11:01:33.162Z,17.80
2018-12-06T11:02:33.144Z,17.20
2018-12-06T11:03:33.137Z,17.30
2018-12-06T11:04:33.115Z,16.70
2018-12-06T11:05:33.106Z,17.20
2018-12-06T11:06:33.113Z,17.20
2018-12-06T11:07:33.101Z,17.60
2018-12-06T11:08:33.074Z,17.30
2018-12-06T11:09:33.074Z,18.00
2018-12-06T11:10:33.121Z,17.50
2018-12-06T11:11:33.063Z,19.40
2018-12-06T11:12:33.029Z,18.30
2018-12-06T11:13:33.034Z,18.90
2018-12-06T11:14:33.016Z,19.00
2018-12-06T11:15:32.998Z,19.70
2018-12-06T11:16:33.000Z,18.90
2018-12-06T11:17:32.988Z,19.00
2018-12-06T11:18:32.967Z,19.40
2018-12-06T11:19:32.967Z,19.50
2018-12-06T11:20:32.942Z,18.90
2018-12-06T11:21:32.930Z,19.40
2018-12-06T11:22:32.936Z,19.50
2018-12-06T11:23:32.906Z,19.30
2018-12-06T11:24:32.897Z,19.90
2018-12-06T11:25:32.890Z,19.40
2018-12-06T11:26:32.883Z,20.60
2018-12-06T11:27:32.913Z,19.90
2018-12-06T11:28:32.873Z,18.80
2018-12-06T11:29:32.842Z,19.30
2018-12-06T11:30:32.841Z,20.30
2018-12-06T11:31:32.826Z,18.60
2018-12-06T11:32:32.807Z,19.60
2018-12-06T11:33:32.841Z,19.00
2018-12-06T11:34:32.805Z,19.60
2018-12-06T11:35:32.783Z,20.00
2018-12-06T11:36:32.776Z,19.30
2018-12-06T11:37:32.756Z,19.40
2018-12-06T11:38:32.753Z,19.90
2018-12-06T11:39:32.761Z,20.20
2018-12-06T11:40:32.739Z,19.90
2018-12-06T11:41:32.715Z,19.40
2018-12-06T11:42:32.722Z,19.30
2018-12-06T11:43:32.690Z,19.60
2018-12-06T11:44:32.672Z,19.60
2018-12-06T11:45:32.674Z,20.70
2018-12-06T11:46:32.656Z,21.30
2018-12-06T11:47:32.653Z,20.80
2018-12-06T11:48:32.674Z,20.80
2018-12-06T11:49:32.621Z,20.30
2018-12-06T11:50:32.606Z,21.00
2018-12-06T11:51:32.599Z,20.80
2018-12-06T11:52:32.587Z,20.90
2018-12-06T11:53:32.595Z,20.80
2018-12-06T11:54:32.586Z,21.10
2018-12-06T11:55:32.586Z,20.60
2018-12-06T11:56:32.554Z,21.00
2018-12-06T11:57:32.557Z,21.50
2018-12-06T11:58:32.526Z,21.20
2018-12-06T11:59:32.533Z,21.10
2018-12-06T12:00:32.497Z,21.80
2018-12-06T12:01:32.486Z,21.90
2018-12-06T12:02:32.476Z,21.80
2018-12-06T12:03:32.481Z,21.70
2018-12-06T12:04:32.461Z,22.40
2018-12-06T12:05:32.491Z,21.90
2018-12-06T12:06:32.435Z,22.80
2018-12-06T12:07:32.423Z,22.80
2018-12-06T12:08:32.507Z,22.80
2018-12-06T12:09:32.407Z,23.60
2018-12-06T12:10:32.423Z,23.50
2018-12-06T12:11:32.427Z,23.00
2018-12-06T12:12:32.370Z,23.40
2018-12-06T12:13:32.358Z,23.70
2018-12-06T12:14:32.367Z,24.60
2018-12-06T12:15:32.343Z,26.00
2018-12-06T12:16:32.329Z,25.80
2018-12-06T12:17:32.341Z,26.00
2018-12-06T12:18:32.304Z,26.20
2018-12-06T12:19:32.319Z,27.10
2018-12-06T12:20:32.285Z,27.50
2018-12-06T12:21:32.286Z,28.00
2018-12-06T12:22:32.267Z,27.90
2018-12-06T12:23:32.270Z,28.30
2018-12-06T12:24:32.245Z,28.50
2018-12-06T12:25:32.219Z,27.90
2018-12-06T12:26:32.230Z,28.50
2018-12-06T12:27:32.232Z,28.70
2018-12-06T12:28:32.207Z,29.60
2018-12-06T12:29:32.179Z,29.00
2018-12-06T12:30:32.176Z,30.00
2018-12-06T12:31:41.787Z,30.40
2018-12-06T12:32:32.457Z,29.00
2018-12-06T12:33:41.579Z,29.70
2018-12-06T12:34:40.836Z,28.60
2018-12-06T12:35:32.350Z,30.10
2018-12-06T12:36:32.122Z,28.10
2018-12-06T12:37:32.094Z,27.50
2018-12-06T12:38:32.152Z,28.70
2018-12-06T12:39:32.178Z,28.80
2018-12-06T12:40:32.112Z,26.60
2018-12-06T12:41:32.121Z,27.90
2018-12-06T12:42:32.033Z,26.30
2018-12-06T12:43:32.871Z,26.40
2018-12-06T12:44:32.101Z,27.20
2018-12-06T12:45:32.095Z,26.70
2018-12-06T12:46:32.051Z,24.90
2018-12-06T12:47:31.977Z,24.30
2018-12-06T12:48:32.083Z,24.70
2018-12-06T12:49:32.022Z,24.90
2018-12-06T12:50:31.979Z,23.20
2018-12-06T12:51:31.927Z,24.80
2018-12-06T12:52:31.916Z,22.30
2018-12-06T12:53:31.923Z,21.70
2018-12-06T12:54:31.934Z,22.20
2018-12-06T12:55:31.942Z,21.60
2018-12-06T12:56:31.881Z,22.10
2018-12-06T12:57:31.868Z,21.70
2018-12-06T12:58:31.855Z,22.00
2018-12-06T12:59:31.841Z,22.50
2018-12-06T13:00:31.845Z,21.40
2018-12-06T13:01:31.852Z,21.40
2018-12-06T13:02:31.808Z,21.50
2018-12-06T13:03:31.868Z,21.10
2018-12-06T13:04:31.786Z,21.00
2018-12-06T13:05:31.788Z,20.70
2018-12-06T13:06:31.784Z,20.50
2018-12-06T13:07:31.770Z,20.90
2018-12-06T13:08:31.745Z,19.60
2018-12-06T13:09:32.493Z,19.50
2018-12-06T13:10:31.783Z,18.50
2018-12-06T13:11:31.722Z,20.10
2018-12-06T13:12:32.514Z,19.50
2018-12-06T13:13:31.687Z,18.40
2018-12-06T13:14:31.785Z,19.10
2018-12-06T13:15:31.670Z,18.70
2018-12-06T13:16:31.699Z,18.20
2018-12-06T13:17:31.646Z,18.50
2018-12-06T13:18:31.635Z,18.20
2018-12-06T13:19:31.647Z,18.10
2018-12-06T13:20:31.696Z,17.50
2018-12-06T13:21:31.616Z,18.80
2018-12-06T13:22:31.606Z,17.40
2018-12-06T13:23:31.598Z,16.40
2018-12-06T13:24:31.563Z,16.20
2018-12-06T13:25:31.551Z,16.90
2018-12-06T13:26:31.552Z,17.50
2018-12-06T13:27:31.569Z,17.30
2018-12-06T13:28:31.643Z,15.80
2018-12-06T13:29:31.706Z,15.20
2018-12-06T13:30:31.504Z,15.90
2018-12-06T13:31:31.489Z,15.90
2018-12-06T13:32:31.599Z,15.20
2018-12-06T13:33:31.489Z,15.00
2018-12-06T13:34:31.473Z,15.60
2018-12-06T13:35:31.445Z,15.60
2018-12-06T13:36:31.443Z,15.90
2018-12-06T13:37:31.420Z,14.90
2018-12-06T13:38:31.443Z,15.10
2018-12-06T13:39:31.404Z,14.30
2018-12-06T13:40:31.387Z,14.70
2018-12-06T13:41:31.390Z,14.30
2018-12-06T13:42:31.361Z,14.60
2018-12-06T13:43:31.349Z,13.80
2018-12-06T13:44:31.358Z,14.40
2018-12-06T13:45:31.333Z,13.60
2018-12-06T13:46:31.319Z,14.90
2018-12-06T13:47:31.413Z,14.50
2018-12-06T13:48:31.467Z,14.50
2018-12-06T13:49:31.301Z,14.30
2018-12-06T13:50:31.276Z,15.00
2018-12-06T13:51:31.341Z,14.20
2018-12-06T13:52:31.253Z,13.40
2018-12-06T13:53:31.242Z,14.80
2018-12-06T13:54:31.257Z,14.60
2018-12-06T13:55:31.234Z,14.40
2018-12-06T13:56:31.268Z,14.80
2018-12-06T13:57:31.199Z,14.30